Pelham, New York
Current Conditions -  °F | °C
As of 5:51 PM on Friday 28 Nov 2014 (Local Time) from KLGA Reporting Station
Scattered Clouds Scattered Clouds  
Wind Chill: -6°   Ceiling: Unl
Heat Index:   Visibility: 10mi
Dew Point: -10°   Wind: 14mph
Humidity: 47%   Direction: 340°NNW
Pressure: 30.23"   Gusts: 22mph
Location:  40.91°N, 73.81°W
Report Text: KLGA 282251Z 34012G19KT 10SM FEW045 SCT250 00/M10 A3023 RMK AO2 SLP237 T00001100
Loading
Personal Weather Stations






























Interactive Weather Map New forecast layout! Learn more

10-Day Weather Forecast

Advertisements
Track Severe Weather on mobile